createdAt,value
2023-03-29T00:00:40.747Z,58.81
2023-03-29T00:03:09.997Z,58.82
2023-03-29T00:05:38.961Z,58.60
2023-03-29T00:08:08.044Z,58.78
2023-03-29T00:10:37.441Z,59.04
2023-03-29T00:13:06.947Z,58.67
2023-03-29T00:15:36.070Z,59.10
2023-03-29T00:18:06.185Z,59.45
2023-03-29T00:20:34.767Z,59.12
2023-03-29T00:23:07.635Z,59.11
2023-03-29T00:25:36.123Z,59.38
2023-03-29T00:28:04.594Z,59.53
2023-03-29T00:30:32.769Z,59.59
2023-03-29T00:33:02.884Z,59.28
2023-03-29T00:35:31.301Z,59.02
2023-03-29T00:38:00.165Z,59.26
2023-03-29T00:40:28.640Z,58.75
2023-03-29T00:43:00.557Z,58.92
2023-03-29T00:45:34.206Z,58.89
2023-03-29T00:48:07.259Z,59.08
2023-03-29T00:50:41.536Z,59.29
2023-03-29T00:53:12.580Z,58.74
2023-03-29T00:55:45.232Z,58.99
2023-03-29T00:58:14.637Z,58.81
2023-03-29T01:00:52.274Z,57.91
2023-03-29T01:03:27.835Z,57.87
2023-03-29T01:06:00.266Z,58.22
2023-03-29T01:08:32.919Z,58.18
2023-03-29T01:11:17.426Z,58.07
2023-03-29T01:13:50.601Z,58.06
2023-03-29T01:16:22.366Z,58.40
2023-03-29T01:18:52.463Z,58.22
2023-03-29T01:21:33.491Z,57.99
2023-03-29T01:24:08.390Z,57.88
2023-03-29T01:27:09.525Z,58.11
2023-03-29T01:29:57.313Z,58.34
2023-03-29T01:32:31.139Z,58.61
2023-03-29T01:35:02.948Z,58.45
2023-03-29T01:37:37.773Z,58.10
2023-03-29T01:40:06.744Z,58.16
2023-03-29T01:42:48.126Z,57.90
2023-03-29T01:45:24.313Z,58.02
2023-03-29T01:48:05.614Z,57.56
2023-03-29T01:50:36.732Z,57.66
2023-03-29T01:53:11.779Z,57.79
2023-03-29T01:55:45.072Z,58.21
2023-03-29T01:58:14.450Z,58.50
2023-03-29T02:00:43.948Z,58.49
2023-03-29T02:03:15.136Z,58.41
2023-03-29T02:05:43.474Z,57.85
2023-03-29T02:08:14.602Z,57.79
2023-03-29T02:10:42.796Z,57.68
2023-03-29T02:13:13.748Z,57.71
2023-03-29T02:15:44.912Z,58.05
2023-03-29T02:18:16.636Z,58.19
2023-03-29T02:20:47.450Z,58.33
2023-03-29T02:23:15.985Z,58.05
2023-03-29T02:25:45.806Z,58.39
2023-03-29T02:28:14.051Z,58.51
2023-03-29T02:31:16.198Z,58.37
2023-03-29T02:33:45.734Z,58.43
2023-03-29T02:36:22.616Z,57.99
2023-03-29T02:38:54.874Z,57.90
2023-03-29T02:41:23.970Z,57.82
2023-03-29T02:43:52.241Z,58.23
2023-03-29T02:46:21.184Z,58.25
2023-03-29T02:48:50.509Z,58.26
2023-03-29T02:51:23.913Z,57.90
2023-03-29T02:54:00.507Z,57.86
2023-03-29T02:56:30.024Z,58.00
2023-03-29T02:58:58.604Z,57.68
2023-03-29T03:01:28.075Z,57.93
2023-03-29T03:03:56.733Z,58.17
2023-03-29T03:06:25.492Z,58.15
2023-03-29T03:08:54.264Z,57.98
2023-03-29T03:11:23.889Z,57.84
2023-03-29T03:13:53.893Z,57.60
2023-03-29T03:16:22.912Z,57.67
2023-03-29T03:18:52.594Z,58.55
2023-03-29T03:21:21.281Z,58.82
2023-03-29T03:23:49.559Z,58.72
2023-03-29T03:26:18.260Z,58.37
2023-03-29T03:28:48.458Z,58.22
2023-03-29T03:31:37.548Z,57.68
2023-03-29T03:34:30.788Z,57.60
2023-03-29T03:37:04.596Z,57.42
2023-03-29T03:39:34.130Z,57.42
2023-03-29T03:42:07.838Z,57.35
2023-03-29T03:44:39.674Z,57.21
2023-03-29T03:47:21.574Z,57.12
2023-03-29T03:49:50.043Z,57.50
2023-03-29T03:52:19.239Z,57.73
2023-03-29T03:54:48.346Z,57.77
2023-03-29T03:57:44.975Z,57.54
2023-03-29T04:00:21.807Z,57.07
2023-03-29T04:03:10.211Z,56.75
2023-03-29T04:05:40.976Z,56.98
2023-03-29T04:08:09.294Z,57.04
2023-03-29T04:10:58.559Z,57.31
2023-03-29T04:13:32.394Z,57.39
2023-03-29T04:16:27.700Z,57.48
2023-03-29T04:18:56.918Z,57.62
2023-03-29T04:21:25.691Z,57.49
2023-03-29T04:23:55.810Z,57.26
2023-03-29T04:26:24.497Z,57.08
2023-03-29T04:29:04.963Z,56.91
2023-03-29T04:31:42.616Z,57.16
2023-03-29T04:34:29.618Z,57.39
2023-03-29T04:36:59.033Z,57.03
2023-03-29T04:39:34.426Z,57.22
2023-03-29T04:42:06.699Z,57.49
2023-03-29T04:44:37.062Z,57.85
2023-03-29T04:47:06.732Z,57.63
2023-03-29T04:49:37.465Z,57.11
2023-03-29T04:52:09.146Z,57.01
2023-03-29T04:54:38.768Z,57.83
2023-03-29T04:57:15.756Z,58.25
2023-03-29T05:00:08.360Z,57.91
2023-03-29T05:03:00.340Z,57.78
2023-03-29T05:05:31.124Z,57.83
2023-03-29T05:08:03.418Z,58.48
2023-03-29T05:11:08.388Z,60.11
2023-03-29T05:13:36.844Z,59.24
2023-03-29T05:16:05.531Z,70.43
2023-03-29T05:18:34.761Z,69.97
2023-03-29T05:21:05.471Z,69.58
2023-03-29T05:23:36.374Z,63.79
2023-03-29T05:26:23.699Z,65.26
2023-03-29T05:29:02.118Z,64.90
2023-03-29T05:31:32.848Z,65.65
2023-03-29T05:34:01.632Z,65.62
2023-03-29T05:36:30.729Z,65.27
2023-03-29T05:39:00.337Z,66.75
2023-03-29T05:41:30.158Z,66.51
2023-03-29T05:44:22.282Z,66.60
2023-03-29T05:46:54.861Z,66.53
2023-03-29T05:49:23.754Z,63.27
2023-03-29T05:52:11.895Z,62.10
2023-03-29T05:54:40.304Z,62.66
2023-03-29T05:57:08.908Z,62.37
2023-03-29T05:59:42.466Z,61.60
2023-03-29T06:02:11.986Z,61.61
2023-03-29T06:04:45.024Z,67.76
2023-03-29T06:07:34.283Z,66.10
2023-03-29T06:10:33.508Z,64.09
2023-03-29T06:13:18.598Z,60.37
2023-03-29T06:15:48.925Z,59.81
2023-03-29T06:18:18.947Z,62.05
2023-03-29T06:20:51.781Z,61.16
2023-03-29T06:23:20.927Z,61.14
2023-03-29T06:25:51.419Z,61.15
2023-03-29T06:28:20.348Z,61.12
2023-03-29T06:30:49.592Z,60.63
2023-03-29T06:33:20.651Z,58.98
2023-03-29T06:35:57.533Z,58.80
2023-03-29T06:38:31.583Z,58.44
2023-03-29T06:41:32.387Z,58.45
2023-03-29T06:44:09.173Z,59.00
2023-03-29T06:46:45.107Z,59.65
2023-03-29T06:49:13.890Z,59.54
2023-03-29T06:52:00.787Z,59.21
2023-03-29T06:54:29.336Z,57.98
2023-03-29T06:57:07.998Z,57.10
2023-03-29T06:59:38.703Z,58.53
2023-03-29T07:02:20.230Z,58.05
2023-03-29T07:05:06.886Z,59.45
2023-03-29T07:07:54.184Z,64.32
2023-03-29T07:10:33.611Z,97.24
2023-03-29T07:13:20.645Z,100.00
2023-03-29T07:15:50.166Z,95.12
2023-03-29T07:18:26.838Z,84.85
2023-03-29T07:20:55.406Z,81.67
2023-03-29T07:23:24.928Z,83.07
2023-03-29T07:25:54.337Z,81.26
2023-03-29T07:28:22.918Z,76.98
2023-03-29T07:30:55.056Z,74.70
2023-03-29T07:33:24.429Z,76.63
2023-03-29T07:36:01.086Z,77.01
2023-03-29T07:38:45.735Z,75.77
2023-03-29T07:43:11.137Z,72.89
2023-03-29T07:45:42.577Z,68.69
2023-03-29T07:48:13.260Z,63.39
2023-03-29T07:51:07.878Z,61.68
2023-03-29T07:53:45.728Z,60.60
2023-03-29T07:56:38.032Z,60.59
2023-03-29T07:59:21.650Z,60.19
2023-03-29T08:02:11.235Z,61.45
2023-03-29T08:04:42.426Z,61.81
2023-03-29T08:07:33.089Z,62.33
2023-03-29T08:10:25.771Z,61.23
2023-03-29T08:13:10.261Z,62.01
2023-03-29T08:15:57.355Z,63.86
2023-03-29T08:18:34.662Z,64.88
2023-03-29T08:21:09.473Z,63.95
2023-03-29T08:23:37.602Z,63.05
2023-03-29T08:26:12.484Z,63.92
2023-03-29T08:28:41.168Z,63.90
2023-03-29T08:31:13.193Z,63.31
2023-03-29T08:33:44.681Z,62.79
2023-03-29T08:36:40.549Z,63.32
2023-03-29T08:39:16.883Z,62.25
2023-03-29T08:42:13.712Z,61.35
2023-03-29T08:45:02.872Z,61.67
2023-03-29T08:48:05.980Z,61.12
2023-03-29T08:50:43.040Z,61.98
2023-03-29T08:53:18.094Z,62.26
2023-03-29T08:56:35.558Z,62.69
2023-03-29T08:59:18.166Z,64.16
2023-03-29T09:01:48.403Z,63.41
2023-03-29T09:04:19.121Z,63.87
2023-03-29T09:06:58.033Z,63.50
2023-03-29T09:09:33.062Z,61.85
2023-03-29T09:12:16.600Z,61.59
2023-03-29T09:15:14.444Z,60.00
2023-03-29T09:17:57.028Z,59.20
2023-03-29T09:20:39.181Z,58.82
2023-03-29T09:23:14.203Z,58.45
2023-03-29T09:26:19.856Z,59.44
2023-03-29T09:29:54.794Z,60.38
2023-03-29T09:32:33.536Z,59.81
2023-03-29T09:35:22.403Z,58.93
2023-03-29T09:37:52.546Z,58.88
2023-03-29T09:40:39.622Z,59.14
2023-03-29T09:43:18.398Z,58.82
2023-03-29T09:45:50.465Z,60.43
2023-03-29T09:48:19.425Z,60.04
2023-03-29T09:50:52.905Z,60.24
2023-03-29T09:53:21.953Z,58.82
2023-03-29T09:55:58.631Z,58.80
2023-03-29T09:58:34.523Z,58.57
2023-03-29T10:01:10.461Z,58.20
2023-03-29T10:03:40.161Z,57.90
2023-03-29T10:06:14.711Z,58.07
2023-03-29T10:08:51.888Z,58.27
2023-03-29T10:11:41.928Z,57.82
2023-03-29T10:14:23.377Z,57.69
2023-03-29T10:16:56.596Z,57.58
2023-03-29T10:19:31.006Z,57.40
2023-03-29T10:22:02.589Z,57.67
2023-03-29T10:24:31.838Z,57.72
2023-03-29T10:27:01.787Z,57.68
2023-03-29T10:29:41.281Z,57.75
2023-03-29T10:32:23.255Z,58.41
2023-03-29T10:34:52.297Z,57.41
2023-03-29T10:37:21.187Z,57.66
2023-03-29T10:39:50.685Z,57.67
2023-03-29T10:42:19.819Z,58.06
2023-03-29T10:44:58.743Z,57.36
2023-03-29T10:47:28.033Z,56.65
2023-03-29T10:49:58.900Z,56.90
2023-03-29T10:52:29.534Z,56.91
2023-03-29T10:54:59.298Z,56.54
2023-03-29T10:57:38.002Z,56.01
2023-03-29T11:00:25.144Z,56.35
2023-03-29T11:03:03.260Z,56.80
2023-03-29T11:05:57.732Z,56.64
2023-03-29T11:08:35.324Z,56.66
2023-03-29T11:11:21.940Z,56.29
2023-03-29T11:14:02.605Z,57.01
2023-03-29T11:16:30.978Z,57.35
2023-03-29T11:19:02.126Z,57.18
2023-03-29T11:21:51.999Z,57.27
2023-03-29T11:24:47.005Z,56.35
2023-03-29T11:27:22.758Z,55.87
2023-03-29T11:30:12.394Z,55.65
2023-03-29T11:32:43.930Z,55.63
2023-03-29T11:35:31.790Z,55.89
2023-03-29T11:38:05.842Z,55.74
2023-03-29T11:40:53.837Z,55.52
2023-03-29T11:43:29.207Z,55.43
2023-03-29T11:46:32.305Z,55.24
2023-03-29T11:49:19.739Z,54.50
2023-03-29T11:51:59.800Z,54.29
2023-03-29T11:54:38.343Z,54.14
2023-03-29T11:57:14.608Z,53.94
2023-03-29T12:00:12.592Z,54.13
2023-03-29T12:02:47.998Z,54.22
2023-03-29T12:05:32.446Z,53.75
2023-03-29T12:08:11.277Z,53.51
2023-03-29T12:10:43.437Z,53.08
2023-03-29T12:13:14.533Z,53.37
2023-03-29T12:15:46.221Z,53.15
2023-03-29T12:18:28.141Z,53.43
2023-03-29T12:21:00.861Z,53.57
2023-03-29T12:23:34.722Z,53.81
2023-03-29T12:26:36.460Z,53.91
2023-03-29T12:29:32.044Z,53.89
2023-03-29T12:32:25.010Z,54.25
2023-03-29T12:35:43.460Z,55.25
2023-03-29T12:38:44.204Z,54.23
2023-03-29T12:41:24.303Z,53.55
2023-03-29T12:44:13.732Z,53.44
2023-03-29T12:46:52.365Z,53.50
2023-03-29T12:49:32.253Z,53.79
2023-03-29T12:52:01.754Z,54.11
2023-03-29T12:54:32.168Z,54.33
2023-03-29T12:57:01.971Z,54.14
2023-03-29T12:59:37.956Z,53.97
2023-03-29T13:02:15.408Z,53.84
2023-03-29T13:04:47.112Z,53.62
2023-03-29T13:07:26.645Z,53.59
2023-03-29T13:09:54.926Z,53.74
2023-03-29T13:12:35.788Z,53.95
2023-03-29T13:15:18.424Z,53.82
2023-03-29T13:17:50.540Z,53.71
2023-03-29T13:20:18.950Z,53.76
2023-03-29T13:22:56.340Z,52.90
2023-03-29T13:25:47.040Z,55.37
2023-03-29T13:28:31.191Z,53.98
2023-03-29T13:31:08.339Z,53.39
2023-03-29T13:33:58.667Z,53.41
2023-03-29T13:36:52.380Z,53.34
2023-03-29T13:39:22.801Z,53.10
2023-03-29T13:41:52.167Z,53.10
2023-03-29T13:44:30.351Z,53.26
2023-03-29T13:47:13.298Z,53.39
2023-03-29T13:49:44.238Z,53.29
2023-03-29T13:52:21.665Z,53.20
2023-03-29T13:54:59.019Z,53.27
2023-03-29T13:57:34.159Z,53.24
2023-03-29T14:00:11.976Z,53.00
2023-03-29T14:02:43.390Z,53.17
2023-03-29T14:05:13.851Z,53.36
2023-03-29T14:07:45.238Z,53.55
2023-03-29T14:10:15.412Z,53.59
2023-03-29T14:12:43.893Z,53.62
2023-03-29T14:15:24.860Z,55.14
2023-03-29T14:17:57.157Z,58.55
2023-03-29T14:20:27.664Z,57.36
2023-03-29T14:23:09.453Z,56.90
2023-03-29T14:25:39.047Z,55.70
2023-03-29T14:28:33.504Z,54.97
2023-03-29T14:31:02.348Z,54.77
2023-03-29T14:33:38.152Z,54.68
2023-03-29T14:36:07.115Z,54.29
2023-03-29T14:38:35.877Z,54.64
2023-03-29T14:41:04.602Z,54.77
2023-03-29T14:43:33.236Z,54.61
2023-03-29T14:46:03.129Z,54.40
2023-03-29T14:48:33.487Z,54.07
2023-03-29T14:51:01.773Z,54.24
2023-03-29T14:53:32.504Z,54.05
2023-03-29T14:56:00.567Z,54.45
2023-03-29T14:58:34.412Z,54.81
2023-03-29T15:01:07.984Z,54.86
2023-03-29T15:03:56.837Z,54.80
2023-03-29T15:06:25.730Z,54.95
2023-03-29T15:09:05.405Z,54.77
2023-03-29T15:11:35.311Z,54.83
2023-03-29T15:14:14.218Z,54.93
2023-03-29T15:16:43.551Z,55.26
2023-03-29T15:19:14.357Z,55.22
2023-03-29T15:21:43.449Z,55.33
2023-03-29T15:24:29.330Z,55.55
2023-03-29T15:27:15.543Z,55.60
2023-03-29T15:29:45.467Z,55.57
2023-03-29T15:32:21.762Z,55.48
2023-03-29T15:35:10.643Z,54.91
2023-03-29T15:37:39.063Z,54.77
2023-03-29T15:40:10.109Z,54.80
2023-03-29T15:42:38.478Z,54.95
2023-03-29T15:45:07.588Z,55.22
2023-03-29T15:47:35.834Z,55.26
2023-03-29T15:50:04.700Z,55.36
2023-03-29T15:52:33.034Z,55.10
2023-03-29T15:55:01.656Z,55.30
2023-03-29T15:57:30.302Z,55.58
2023-03-29T15:59:58.831Z,55.77
2023-03-29T16:02:28.077Z,55.91
2023-03-29T16:04:56.348Z,55.69
2023-03-29T16:07:24.935Z,55.56
2023-03-29T16:09:53.427Z,55.68
2023-03-29T16:12:25.622Z,55.73
2023-03-29T16:14:54.787Z,55.81
2023-03-29T16:17:23.066Z,55.94
2023-03-29T16:19:55.562Z,55.84
2023-03-29T16:22:23.720Z,55.94
2023-03-29T16:24:52.092Z,55.71
2023-03-29T16:27:20.476Z,55.35
2023-03-29T16:29:49.461Z,55.38
2023-03-29T16:32:23.450Z,55.05
2023-03-29T16:34:52.242Z,55.25
2023-03-29T16:37:20.535Z,55.13
2023-03-29T16:39:50.756Z,55.23
2023-03-29T16:42:19.156Z,55.11
2023-03-29T16:44:47.413Z,55.34
2023-03-29T16:47:16.448Z,55.29
2023-03-29T16:49:48.705Z,55.43
2023-03-29T16:52:17.259Z,55.71
2023-03-29T16:54:47.171Z,55.48
2023-03-29T16:57:15.240Z,55.33
2023-03-29T16:59:47.461Z,55.45
2023-03-29T17:02:15.910Z,55.38
2023-03-29T17:04:44.224Z,55.34
2023-03-29T17:07:13.167Z,55.36
2023-03-29T17:09:41.726Z,55.32
2023-03-29T17:12:09.991Z,55.42
2023-03-29T17:14:38.304Z,55.45
2023-03-29T17:17:06.789Z,55.38
2023-03-29T17:19:35.160Z,55.48
2023-03-29T17:22:03.437Z,55.56
2023-03-29T17:24:37.346Z,55.38
2023-03-29T17:27:06.041Z,55.33
2023-03-29T17:29:34.309Z,55.42
2023-03-29T17:32:02.892Z,55.25
2023-03-29T17:34:33.115Z,55.17
2023-03-29T17:37:03.847Z,55.14
2023-03-29T17:39:37.221Z,55.17
2023-03-29T17:42:05.742Z,55.13
2023-03-29T17:44:36.566Z,55.18
2023-03-29T17:47:04.877Z,55.22
2023-03-29T17:49:33.121Z,55.21
2023-03-29T17:52:01.514Z,55.25
2023-03-29T17:54:30.088Z,54.99
2023-03-29T17:56:59.106Z,54.92
2023-03-29T17:59:27.353Z,55.03
2023-03-29T18:01:57.897Z,55.14
2023-03-29T18:04:26.109Z,55.18
2023-03-29T18:06:55.159Z,55.04
2023-03-29T18:09:26.017Z,54.89
2023-03-29T18:11:55.481Z,54.96
2023-03-29T18:14:23.937Z,54.99
2023-03-29T18:16:54.471Z,55.20
2023-03-29T18:19:22.974Z,55.16
2023-03-29T18:21:51.607Z,54.88
2023-03-29T18:24:19.816Z,54.80
2023-03-29T18:26:48.127Z,54.57
2023-03-29T18:29:16.508Z,54.16
2023-03-29T18:31:46.092Z,54.15
2023-03-29T18:34:14.804Z,53.99
2023-03-29T18:36:45.237Z,54.09
2023-03-29T18:39:13.833Z,54.13
2023-03-29T18:41:44.494Z,54.04
2023-03-29T18:44:14.264Z,53.98
2023-03-29T18:46:42.802Z,54.17
2023-03-29T18:49:13.334Z,54.05
2023-03-29T18:51:42.368Z,54.25
2023-03-29T18:54:11.930Z,54.10
2023-03-29T18:56:40.470Z,54.20
2023-03-29T18:59:11.829Z,54.19
2023-03-29T19:01:40.873Z,54.39
2023-03-29T19:04:09.087Z,54.35
2023-03-29T19:06:38.179Z,54.13
2023-03-29T19:09:07.578Z,54.19
2023-03-29T19:11:36.781Z,54.34
2023-03-29T19:14:08.446Z,54.29
2023-03-29T19:16:37.433Z,54.41
2023-03-29T19:19:06.945Z,54.54
2023-03-29T19:21:38.896Z,54.43
2023-03-29T19:24:07.951Z,54.67
2023-03-29T19:26:36.695Z,54.83
2023-03-29T19:29:05.779Z,54.89
2023-03-29T19:31:36.078Z,54.99
2023-03-29T19:34:06.977Z,54.89
2023-03-29T19:36:35.942Z,54.85
2023-03-29T19:39:05.262Z,54.85
2023-03-29T19:41:35.843Z,54.90
2023-03-29T19:44:05.463Z,54.82
2023-03-29T19:46:34.477Z,54.64
2023-03-29T19:49:05.152Z,54.32
2023-03-29T19:51:35.105Z,54.38
2023-03-29T19:54:03.380Z,54.26
2023-03-29T19:56:35.039Z,53.99
2023-03-29T20:11:52.972Z,53.72
2023-03-29T20:14:21.561Z,52.79
2023-03-29T20:16:51.055Z,52.96
2023-03-29T20:19:23.789Z,53.01
2023-03-29T20:21:57.407Z,53.07
2023-03-29T20:24:25.812Z,53.49
2023-03-29T20:26:54.300Z,53.39
2023-03-29T20:29:24.315Z,53.62
2023-03-29T20:31:53.226Z,53.63
2023-03-29T20:34:22.463Z,53.76
2023-03-29T20:36:50.803Z,53.97
2023-03-29T20:39:25.798Z,54.12
2023-03-29T20:41:55.736Z,54.15
2023-03-29T20:44:28.549Z,54.16
2023-03-29T20:47:08.637Z,54.27
2023-03-29T20:49:40.166Z,54.05
2023-03-29T20:52:15.493Z,54.16
2023-03-29T20:54:44.731Z,54.36
2023-03-29T20:57:14.703Z,54.40
2023-03-29T20:59:43.852Z,54.56
2023-03-29T21:02:14.001Z,54.78
2023-03-29T21:04:44.234Z,54.98
2023-03-29T21:07:12.702Z,55.03
2023-03-29T21:09:42.420Z,55.21
2023-03-29T21:12:13.019Z,55.32
2023-03-29T21:14:41.835Z,55.42
2023-03-29T21:17:10.477Z,55.35
2023-03-29T21:19:39.615Z,55.14
2023-03-29T21:22:07.920Z,54.83
2023-03-29T21:24:39.338Z,54.67
2023-03-29T21:27:07.517Z,54.55
2023-03-29T21:29:35.915Z,54.62
2023-03-29T21:32:04.787Z,54.62
2023-03-29T21:34:32.961Z,54.60
2023-03-29T21:37:01.224Z,54.47
2023-03-29T21:39:30.173Z,54.49
2023-03-29T21:41:59.328Z,54.33
2023-03-29T21:44:27.704Z,54.32
2023-03-29T21:46:56.358Z,54.43
2023-03-29T21:49:25.556Z,54.34
2023-03-29T21:51:54.079Z,54.27
2023-03-29T21:54:22.868Z,54.31
2023-03-29T21:56:51.261Z,54.27
2023-03-29T21:59:19.419Z,54.16
2023-03-29T22:01:47.748Z,54.31
2023-03-29T22:04:25.797Z,54.31
2023-03-29T22:07:04.125Z,54.34
2023-03-29T22:09:33.420Z,54.37
2023-03-29T22:12:01.694Z,54.22
2023-03-29T22:14:34.873Z,54.35
2023-03-29T22:17:07.964Z,54.25
2023-03-29T22:19:39.791Z,54.26
2023-03-29T22:22:13.931Z,54.34
2023-03-29T22:24:42.645Z,54.24
2023-03-29T22:27:15.746Z,54.08
2023-03-29T22:29:44.826Z,54.12
2023-03-29T22:32:13.243Z,54.26
2023-03-29T22:34:42.252Z,54.41
2023-03-29T22:37:10.886Z,54.43
2023-03-29T22:39:39.055Z,54.45
2023-03-29T22:42:07.443Z,54.62
2023-03-29T22:44:36.176Z,54.53
2023-03-29T22:47:05.736Z,54.32
2023-03-29T22:49:34.311Z,54.24
2023-03-29T22:52:02.794Z,53.88
2023-03-29T22:54:31.385Z,53.82
2023-03-29T22:56:59.717Z,53.95
2023-03-29T22:59:29.316Z,53.93
2023-03-29T23:01:57.669Z,53.81
2023-03-29T23:04:26.067Z,53.99
2023-03-29T23:06:54.600Z,54.27
2023-03-29T23:09:22.744Z,54.41
2023-03-29T23:11:51.091Z,54.43
2023-03-29T23:14:19.537Z,54.63
2023-03-29T23:16:47.922Z,54.77
2023-03-29T23:19:16.577Z,54.98
2023-03-29T23:21:45.295Z,55.12
2023-03-29T23:24:19.009Z,55.32
2023-03-29T23:26:49.165Z,55.45
2023-03-29T23:29:17.284Z,55.39
2023-03-29T23:31:47.809Z,55.58
2023-03-29T23:34:16.706Z,55.70
2023-03-29T23:36:47.849Z,55.82
2023-03-29T23:39:16.289Z,55.99
2023-03-29T23:41:44.722Z,56.22
2023-03-29T23:44:15.962Z,56.40
2023-03-29T23:46:45.114Z,56.65
2023-03-29T23:49:13.945Z,56.81
2023-03-29T23:51:45.182Z,56.88
2023-03-29T23:54:13.387Z,57.06
2023-03-29T23:56:46.896Z,57.03
2023-03-29T23:59:15.559Z,56.93
